sensor_id;sensor_type;location;lat;lon;timestamp;P1;durP1;ratioP1;P2;durP2;ratioP2
32038;SDS011;18549;42.286;22.688;2023-09-08T00:02:28;7.45;;;5.53;;
32038;SDS011;18549;42.286;22.688;2023-09-08T00:04:55;9.57;;;5.47;;
32038;SDS011;18549;42.286;22.688;2023-09-08T00:07:23;7.32;;;5.45;;
32038;SDS011;18549;42.286;22.688;2023-09-08T00:09:51;9.77;;;5.57;;
32038;SDS011;18549;42.286;22.688;2023-09-08T00:12:18;10.40;;;5.40;;
32038;SDS011;18549;42.286;22.688;2023-09-08T00:14:48;9.52;;;5.82;;
32038;SDS011;18549;42.286;22.688;2023-09-08T00:17:15;7.40;;;4.82;;
32038;SDS011;18549;42.286;22.688;2023-09-08T00:19:43;10.68;;;5.72;;
32038;SDS011;18549;42.286;22.688;2023-09-08T00:22:11;11.73;;;5.82;;
32038;SDS011;18549;42.286;22.688;2023-09-08T00:24:38;9.13;;;5.15;;
32038;SDS011;18549;42.286;22.688;2023-09-08T00:27:06;8.98;;;5.95;;
32038;SDS011;18549;42.286;22.688;2023-09-08T00:29:37;9.52;;;5.12;;
32038;SDS011;18549;42.286;22.688;2023-09-08T00:32:07;8.02;;;5.62;;
32038;SDS011;18549;42.286;22.688;2023-09-08T00:34:34;9.65;;;5.20;;
32038;SDS011;18549;42.286;22.688;2023-09-08T00:37:02;8.27;;;5.10;;
32038;SDS011;18549;42.286;22.688;2023-09-08T00:39:35;5.93;;;4.82;;
32038;SDS011;18549;42.286;22.688;2023-09-08T00:42:07;7.75;;;5.07;;
32038;SDS011;18549;42.286;22.688;2023-09-08T00:44:35;9.95;;;5.65;;
32038;SDS011;18549;42.286;22.688;2023-09-08T00:47:03;7.47;;;4.82;;
32038;SDS011;18549;42.286;22.688;2023-09-08T00:49:33;9.90;;;5.60;;
32038;SDS011;18549;42.286;22.688;2023-09-08T00:52:06;7.62;;;5.03;;
32038;SDS011;18549;42.286;22.688;2023-09-08T00:54:34;10.00;;;4.87;;
32038;SDS011;18549;42.286;22.688;2023-09-08T00:57:01;5.40;;;4.82;;
32038;SDS011;18549;42.286;22.688;2023-09-08T00:59:31;10.33;;;4.87;;
32038;SDS011;18549;42.286;22.688;2023-09-08T01:02:12;10.15;;;5.03;;
32038;SDS011;18549;42.286;22.688;2023-09-08T01:04:42;6.85;;;5.15;;
32038;SDS011;18549;42.286;22.688;2023-09-08T01:07:11;7.30;;;4.90;;
32038;SDS011;18549;42.286;22.688;2023-09-08T01:09:41;7.93;;;5.15;;
32038;SDS011;18549;42.286;22.688;2023-09-08T01:12:09;8.27;;;5.53;;
32038;SDS011;18549;42.286;22.688;2023-09-08T01:14:38;7.15;;;5.95;;
32038;SDS011;18549;42.286;22.688;2023-09-08T01:17:05;8.82;;;6.50;;
32038;SDS011;18549;42.286;22.688;2023-09-08T01:19:39;11.38;;;5.72;;
32038;SDS011;18549;42.286;22.688;2023-09-08T01:22:21;7.00;;;6.30;;
32038;SDS011;18549;42.286;22.688;2023-09-08T01:27:53;9.18;;;5.93;;
32038;SDS011;18549;42.286;22.688;2023-09-08T01:30:25;6.43;;;5.47;;
32038;SDS011;18549;42.286;22.688;2023-09-08T01:32:57;6.80;;;6.05;;
32038;SDS011;18549;42.286;22.688;2023-09-08T01:35:27;14.38;;;6.45;;
32038;SDS011;18549;42.286;22.688;2023-09-08T01:37:54;7.32;;;6.15;;
32038;SDS011;18549;42.286;22.688;2023-09-08T01:40:24;6.90;;;5.90;;
32038;SDS011;18549;42.286;22.688;2023-09-08T01:42:57;9.30;;;7.00;;
32038;SDS011;18549;42.286;22.688;2023-09-08T01:45:25;10.20;;;6.70;;
32038;SDS011;18549;42.286;22.688;2023-09-08T01:47:53;12.93;;;7.05;;
32038;SDS011;18549;42.286;22.688;2023-09-08T01:50:22;11.98;;;6.55;;
32038;SDS011;18549;42.286;22.688;2023-09-08T01:52:50;8.98;;;5.95;;
32038;SDS011;18549;42.286;22.688;2023-09-08T01:55:18;12.63;;;6.62;;
32038;SDS011;18549;42.286;22.688;2023-09-08T01:57:47;10.27;;;6.57;;
32038;SDS011;18549;42.286;22.688;2023-09-08T02:00:16;22.48;;;7.45;;
32038;SDS011;18549;42.286;22.688;2023-09-08T02:02:43;9.10;;;6.35;;
32038;SDS011;18549;42.286;22.688;2023-09-08T02:05:11;7.57;;;6.03;;
32038;SDS011;18549;42.286;22.688;2023-09-08T02:07:40;12.48;;;6.12;;
32038;SDS011;18549;42.286;22.688;2023-09-08T02:10:09;10.93;;;6.22;;
32038;SDS011;18549;42.286;22.688;2023-09-08T02:12:36;7.15;;;5.75;;
32038;SDS011;18549;42.286;22.688;2023-09-08T02:15:06;6.93;;;5.60;;
32038;SDS011;18549;42.286;22.688;2023-09-08T02:17:40;8.20;;;5.87;;
32038;SDS011;18549;42.286;22.688;2023-09-08T02:20:11;7.18;;;6.00;;
32038;SDS011;18549;42.286;22.688;2023-09-08T02:22:38;7.70;;;5.90;;
32038;SDS011;18549;42.286;22.688;2023-09-08T02:25:06;12.50;;;6.10;;
32038;SDS011;18549;42.286;22.688;2023-09-08T02:27:35;10.93;;;6.45;;
32038;SDS011;18549;42.286;22.688;2023-09-08T02:30:03;10.77;;;6.80;;
32038;SDS011;18549;42.286;22.688;2023-09-08T02:32:32;9.50;;;5.47;;
32038;SDS011;18549;42.286;22.688;2023-09-08T02:35:00;11.80;;;6.03;;
32038;SDS011;18549;42.286;22.688;2023-09-08T02:37:28;9.57;;;6.03;;
32038;SDS011;18549;42.286;22.688;2023-09-08T02:39:55;11.77;;;6.00;;
32038;SDS011;18549;42.286;22.688;2023-09-08T02:42:23;9.48;;;6.05;;
32038;SDS011;18549;42.286;22.688;2023-09-08T02:44:50;11.27;;;6.28;;
32038;SDS011;18549;42.286;22.688;2023-09-08T02:47:18;8.50;;;5.95;;
32038;SDS011;18549;42.286;22.688;2023-09-08T02:49:47;9.25;;;6.10;;
32038;SDS011;18549;42.286;22.688;2023-09-08T02:52:14;8.52;;;6.00;;
32038;SDS011;18549;42.286;22.688;2023-09-08T02:54:44;14.85;;;7.03;;
32038;SDS011;18549;42.286;22.688;2023-09-08T02:57:12;10.15;;;5.82;;
32038;SDS011;18549;42.286;22.688;2023-09-08T02:59:40;8.98;;;6.25;;
32038;SDS011;18549;42.286;22.688;2023-09-08T03:02:07;8.30;;;6.37;;
32038;SDS011;18549;42.286;22.688;2023-09-08T03:04:34;25.60;;;6.62;;
32038;SDS011;18549;42.286;22.688;2023-09-08T03:07:03;8.45;;;6.62;;
32038;SDS011;18549;42.286;22.688;2023-09-08T03:09:31;7.37;;;5.80;;
32038;SDS011;18549;42.286;22.688;2023-09-08T03:12:00;6.50;;;5.60;;
32038;SDS011;18549;42.286;22.688;2023-09-08T03:14:28;11.00;;;6.78;;
32038;SDS011;18549;42.286;22.688;2023-09-08T03:16:56;11.43;;;5.97;;
32038;SDS011;18549;42.286;22.688;2023-09-08T03:19:23;12.57;;;6.30;;
32038;SDS011;18549;42.286;22.688;2023-09-08T03:21:51;7.32;;;6.25;;
32038;SDS011;18549;42.286;22.688;2023-09-08T03:24:22;8.30;;;5.95;;
32038;SDS011;18549;42.286;22.688;2023-09-08T03:26:53;7.82;;;5.90;;
32038;SDS011;18549;42.286;22.688;2023-09-08T03:29:20;8.13;;;6.47;;
32038;SDS011;18549;42.286;22.688;2023-09-08T03:31:48;9.85;;;6.50;;
32038;SDS011;18549;42.286;22.688;2023-09-08T03:34:15;18.10;;;7.37;;
32038;SDS011;18549;42.286;22.688;2023-09-08T03:36:45;72.60;;;31.05;;
32038;SDS011;18549;42.286;22.688;2023-09-08T03:39:12;152.10;;;65.53;;
32038;SDS011;18549;42.286;22.688;2023-09-08T03:41:41;104.90;;;45.73;;
32038;SDS011;18549;42.286;22.688;2023-09-08T03:44:09;61.78;;;31.70;;
32038;SDS011;18549;42.286;22.688;2023-09-08T03:46:36;31.55;;;18.15;;
32038;SDS011;18549;42.286;22.688;2023-09-08T03:49:03;19.80;;;12.43;;
32038;SDS011;18549;42.286;22.688;2023-09-08T03:51:31;21.92;;;13.43;;
32038;SDS011;18549;42.286;22.688;2023-09-08T03:53:59;21.48;;;16.12;;
32038;SDS011;18549;42.286;22.688;2023-09-08T03:56:28;22.30;;;14.43;;
32038;SDS011;18549;42.286;22.688;2023-09-08T03:58:57;10.95;;;9.18;;
32038;SDS011;18549;42.286;22.688;2023-09-08T04:01:24;14.68;;;9.75;;
32038;SDS011;18549;42.286;22.688;2023-09-08T04:03:51;9.15;;;7.50;;
32038;SDS011;18549;42.286;22.688;2023-09-08T04:06:19;15.82;;;7.57;;
32038;SDS011;18549;42.286;22.688;2023-09-08T04:08:47;15.23;;;8.77;;
32038;SDS011;18549;42.286;22.688;2023-09-08T04:11:14;12.63;;;7.53;;
32038;SDS011;18549;42.286;22.688;2023-09-08T04:13:42;13.50;;;7.47;;
32038;SDS011;18549;42.286;22.688;2023-09-08T04:16:11;18.23;;;8.60;;
32038;SDS011;18549;42.286;22.688;2023-09-08T04:18:38;10.25;;;6.57;;
32038;SDS011;18549;42.286;22.688;2023-09-08T04:21:06;11.82;;;9.57;;
32038;SDS011;18549;42.286;22.688;2023-09-08T04:23:34;19.75;;;11.63;;
32038;SDS011;18549;42.286;22.688;2023-09-08T04:26:01;11.02;;;8.82;;
32038;SDS011;18549;42.286;22.688;2023-09-08T04:28:29;20.12;;;10.02;;
32038;SDS011;18549;42.286;22.688;2023-09-08T04:30:57;16.55;;;9.88;;
32038;SDS011;18549;42.286;22.688;2023-09-08T04:33:26;11.25;;;9.55;;
32038;SDS011;18549;42.286;22.688;2023-09-08T04:35:54;15.30;;;9.73;;
32038;SDS011;18549;42.286;22.688;2023-09-08T04:38:21;16.15;;;9.55;;
32038;SDS011;18549;42.286;22.688;2023-09-08T04:40:49;10.38;;;7.32;;
32038;SDS011;18549;42.286;22.688;2023-09-08T04:43:16;14.18;;;7.55;;
32038;SDS011;18549;42.286;22.688;2023-09-08T04:45:43;10.40;;;7.47;;
32038;SDS011;18549;42.286;22.688;2023-09-08T04:48:11;11.65;;;7.57;;
32038;SDS011;18549;42.286;22.688;2023-09-08T04:50:40;9.95;;;6.55;;
32038;SDS011;18549;42.286;22.688;2023-09-08T04:53:07;11.57;;;6.45;;
32038;SDS011;18549;42.286;22.688;2023-09-08T04:55:34;13.70;;;7.20;;
32038;SDS011;18549;42.286;22.688;2023-09-08T04:58:02;8.98;;;6.47;;
32038;SDS011;18549;42.286;22.688;2023-09-08T05:00:29;14.35;;;6.65;;
32038;SDS011;18549;42.286;22.688;2023-09-08T05:02:58;13.70;;;6.95;;
32038;SDS011;18549;42.286;22.688;2023-09-08T05:05:26;12.73;;;6.47;;
32038;SDS011;18549;42.286;22.688;2023-09-08T05:07:54;11.02;;;6.25;;
32038;SDS011;18549;42.286;22.688;2023-09-08T05:10:22;8.52;;;6.22;;
32038;SDS011;18549;42.286;22.688;2023-09-08T05:12:50;12.00;;;6.53;;
32038;SDS011;18549;42.286;22.688;2023-09-08T05:15:17;11.12;;;6.03;;
32038;SDS011;18549;42.286;22.688;2023-09-08T05:17:46;18.30;;;6.87;;
32038;SDS011;18549;42.286;22.688;2023-09-08T05:20:13;10.90;;;7.10;;
32038;SDS011;18549;42.286;22.688;2023-09-08T05:22:41;11.23;;;6.82;;
32038;SDS011;18549;42.286;22.688;2023-09-08T05:25:10;10.25;;;6.90;;
32038;SDS011;18549;42.286;22.688;2023-09-08T05:27:37;9.02;;;6.53;;
32038;SDS011;18549;42.286;22.688;2023-09-08T05:30:05;12.45;;;6.35;;
32038;SDS011;18549;42.286;22.688;2023-09-08T05:32:34;8.40;;;5.55;;
32038;SDS011;18549;42.286;22.688;2023-09-08T05:35:02;11.12;;;6.43;;
32038;SDS011;18549;42.286;22.688;2023-09-08T05:37:30;19.52;;;8.38;;
32038;SDS011;18549;42.286;22.688;2023-09-08T05:39:57;18.25;;;7.78;;
32038;SDS011;18549;42.286;22.688;2023-09-08T05:42:26;17.27;;;7.30;;
32038;SDS011;18549;42.286;22.688;2023-09-08T05:44:53;8.57;;;5.97;;
32038;SDS011;18549;42.286;22.688;2023-09-08T05:47:21;14.20;;;5.62;;
32038;SDS011;18549;42.286;22.688;2023-09-08T05:49:48;9.18;;;5.50;;
32038;SDS011;18549;42.286;22.688;2023-09-08T05:52:15;11.73;;;5.65;;
32038;SDS011;18549;42.286;22.688;2023-09-08T05:54:43;6.30;;;5.57;;
32038;SDS011;18549;42.286;22.688;2023-09-08T05:57:10;9.95;;;5.75;;
32038;SDS011;18549;42.286;22.688;2023-09-08T05:59:38;12.63;;;6.32;;
32038;SDS011;18549;42.286;22.688;2023-09-08T06:02:06;10.40;;;5.78;;
32038;SDS011;18549;42.286;22.688;2023-09-08T06:04:33;11.30;;;5.60;;
32038;SDS011;18549;42.286;22.688;2023-09-08T06:07:01;9.38;;;5.95;;
32038;SDS011;18549;42.286;22.688;2023-09-08T06:09:28;9.27;;;5.85;;
32038;SDS011;18549;42.286;22.688;2023-09-08T06:11:55;8.90;;;5.95;;
32038;SDS011;18549;42.286;22.688;2023-09-08T06:14:23;7.18;;;5.22;;
32038;SDS011;18549;42.286;22.688;2023-09-08T06:16:51;14.02;;;5.93;;
32038;SDS011;18549;42.286;22.688;2023-09-08T06:19:18;6.60;;;5.20;;
32038;SDS011;18549;42.286;22.688;2023-09-08T06:21:46;6.85;;;5.43;;
32038;SDS011;18549;42.286;22.688;2023-09-08T06:24:13;15.82;;;5.55;;
32038;SDS011;18549;42.286;22.688;2023-09-08T06:26:40;10.32;;;5.45;;
32038;SDS011;18549;42.286;22.688;2023-09-08T06:29:08;10.05;;;6.12;;
32038;SDS011;18549;42.286;22.688;2023-09-08T06:31:36;8.77;;;5.35;;
32038;SDS011;18549;42.286;22.688;2023-09-08T06:34:05;12.80;;;5.78;;
32038;SDS011;18549;42.286;22.688;2023-09-08T06:36:33;9.52;;;5.62;;
32038;SDS011;18549;42.286;22.688;2023-09-08T06:39:00;7.40;;;5.15;;
32038;SDS011;18549;42.286;22.688;2023-09-08T06:41:27;5.65;;;5.05;;
32038;SDS011;18549;42.286;22.688;2023-09-08T06:43:55;9.80;;;5.57;;
32038;SDS011;18549;42.286;22.688;2023-09-08T06:46:22;11.02;;;4.68;;
32038;SDS011;18549;42.286;22.688;2023-09-08T06:48:49;7.40;;;4.93;;
32038;SDS011;18549;42.286;22.688;2023-09-08T06:51:18;9.85;;;4.53;;
32038;SDS011;18549;42.286;22.688;2023-09-08T06:53:49;12.30;;;4.95;;
32038;SDS011;18549;42.286;22.688;2023-09-08T06:56:21;13.05;;;4.50;;
32038;SDS011;18549;42.286;22.688;2023-09-08T06:58:48;5.18;;;4.40;;
32038;SDS011;18549;42.286;22.688;2023-09-08T07:01:15;10.77;;;4.78;;
32038;SDS011;18549;42.286;22.688;2023-09-08T07:03:42;12.45;;;4.78;;
32038;SDS011;18549;42.286;22.688;2023-09-08T07:06:10;8.02;;;4.30;;
32038;SDS011;18549;42.286;22.688;2023-09-08T07:08:39;7.25;;;3.70;;
32038;SDS011;18549;42.286;22.688;2023-09-08T07:11:06;4.75;;;3.95;;
32038;SDS011;18549;42.286;22.688;2023-09-08T07:13:34;7.35;;;4.57;;
32038;SDS011;18549;42.286;22.688;2023-09-08T07:16:02;5.53;;;4.22;;
32038;SDS011;18549;42.286;22.688;2023-09-08T07:18:30;14.20;;;4.60;;
32038;SDS011;18549;42.286;22.688;2023-09-08T07:21:01;12.93;;;4.05;;
32038;SDS011;18549;42.286;22.688;2023-09-08T07:23:28;6.40;;;4.18;;
32038;SDS011;18549;42.286;22.688;2023-09-08T07:25:57;19.15;;;4.50;;
32038;SDS011;18549;42.286;22.688;2023-09-08T07:28:24;5.90;;;4.12;;
32038;SDS011;18549;42.286;22.688;2023-09-08T07:30:51;13.65;;;5.93;;
32038;SDS011;18549;42.286;22.688;2023-09-08T07:33:19;12.95;;;6.15;;
32038;SDS011;18549;42.286;22.688;2023-09-08T07:35:47;10.15;;;5.70;;
32038;SDS011;18549;42.286;22.688;2023-09-08T07:38:15;5.93;;;4.50;;
32038;SDS011;18549;42.286;22.688;2023-09-08T07:40:42;8.70;;;4.00;;
32038;SDS011;18549;42.286;22.688;2023-09-08T07:43:11;7.47;;;4.97;;
32038;SDS011;18549;42.286;22.688;2023-09-08T07:45:38;8.45;;;5.20;;
32038;SDS011;18549;42.286;22.688;2023-09-08T07:48:05;6.15;;;3.83;;
32038;SDS011;18549;42.286;22.688;2023-09-08T07:50:33;6.65;;;4.40;;
32038;SDS011;18549;42.286;22.688;2023-09-08T07:53:00;7.90;;;4.62;;
32038;SDS011;18549;42.286;22.688;2023-09-08T07:55:28;4.82;;;3.47;;
32038;SDS011;18549;42.286;22.688;2023-09-08T07:57:55;8.82;;;4.43;;
32038;SDS011;18549;42.286;22.688;2023-09-08T08:00:25;5.20;;;3.50;;
32038;SDS011;18549;42.286;22.688;2023-09-08T08:02:53;5.20;;;4.12;;
32038;SDS011;18549;42.286;22.688;2023-09-08T08:05:22;5.70;;;4.03;;
32038;SDS011;18549;42.286;22.688;2023-09-08T08:07:50;8.05;;;3.65;;
32038;SDS011;18549;42.286;22.688;2023-09-08T08:10:18;6.45;;;3.95;;
32038;SDS011;18549;42.286;22.688;2023-09-08T08:12:45;8.02;;;3.97;;
32038;SDS011;18549;42.286;22.688;2023-09-08T08:15:13;5.40;;;3.58;;
32038;SDS011;18549;42.286;22.688;2023-09-08T08:17:42;6.45;;;3.33;;
32038;SDS011;18549;42.286;22.688;2023-09-08T08:20:10;10.40;;;3.60;;
32038;SDS011;18549;42.286;22.688;2023-09-08T08:22:42;14.65;;;4.53;;
32038;SDS011;18549;42.286;22.688;2023-09-08T08:25:10;12.82;;;4.37;;
32038;SDS011;18549;42.286;22.688;2023-09-08T08:27:39;7.85;;;4.50;;
32038;SDS011;18549;42.286;22.688;2023-09-08T08:30:07;10.40;;;3.30;;
32038;SDS011;18549;42.286;22.688;2023-09-08T08:32:36;6.47;;;3.62;;
32038;SDS011;18549;42.286;22.688;2023-09-08T08:35:05;17.52;;;4.10;;
32038;SDS011;18549;42.286;22.688;2023-09-08T08:37:33;8.63;;;3.80;;
32038;SDS011;18549;42.286;22.688;2023-09-08T08:40:00;8.77;;;3.78;;
32038;SDS011;18549;42.286;22.688;2023-09-08T08:42:31;9.82;;;3.45;;
32038;SDS011;18549;42.286;22.688;2023-09-08T08:44:59;7.43;;;3.40;;
32038;SDS011;18549;42.286;22.688;2023-09-08T08:47:27;4.57;;;3.28;;
32038;SDS011;18549;42.286;22.688;2023-09-08T08:49:55;9.25;;;4.15;;
32038;SDS011;18549;42.286;22.688;2023-09-08T08:52:25;6.93;;;3.85;;
32038;SDS011;18549;42.286;22.688;2023-09-08T08:54:52;17.12;;;3.40;;
32038;SDS011;18549;42.286;22.688;2023-09-08T08:57:20;6.10;;;3.78;;
32038;SDS011;18549;42.286;22.688;2023-09-08T08:59:48;7.53;;;3.42;;
32038;SDS011;18549;42.286;22.688;2023-09-08T09:02:17;5.85;;;3.92;;
32038;SDS011;18549;42.286;22.688;2023-09-08T09:04:45;6.78;;;4.25;;
32038;SDS011;18549;42.286;22.688;2023-09-08T09:07:14;4.60;;;3.30;;
32038;SDS011;18549;42.286;22.688;2023-09-08T09:09:46;10.98;;;3.90;;
32038;SDS011;18549;42.286;22.688;2023-09-08T09:12:13;4.30;;;3.75;;
32038;SDS011;18549;42.286;22.688;2023-09-08T09:14:44;8.38;;;4.37;;
32038;SDS011;18549;42.286;22.688;2023-09-08T09:17:13;5.75;;;3.45;;
32038;SDS011;18549;42.286;22.688;2023-09-08T09:19:40;9.52;;;3.67;;
32038;SDS011;18549;42.286;22.688;2023-09-08T09:22:07;5.72;;;3.53;;
32038;SDS011;18549;42.286;22.688;2023-09-08T09:24:35;6.30;;;3.00;;
32038;SDS011;18549;42.286;22.688;2023-09-08T09:27:07;6.15;;;3.25;;
32038;SDS011;18549;42.286;22.688;2023-09-08T09:29:43;7.25;;;4.00;;
32038;SDS011;18549;42.286;22.688;2023-09-08T09:32:12;4.80;;;3.33;;
32038;SDS011;18549;42.286;22.688;2023-09-08T09:34:47;8.82;;;3.65;;
32038;SDS011;18549;42.286;22.688;2023-09-08T09:37:15;4.25;;;2.70;;
32038;SDS011;18549;42.286;22.688;2023-09-08T09:39:45;9.80;;;3.22;;
32038;SDS011;18549;42.286;22.688;2023-09-08T09:42:16;7.80;;;3.30;;
32038;SDS011;18549;42.286;22.688;2023-09-08T09:44:46;10.93;;;3.37;;
32038;SDS011;18549;42.286;22.688;2023-09-08T09:47:14;11.23;;;3.00;;
32038;SDS011;18549;42.286;22.688;2023-09-08T09:49:43;6.00;;;3.17;;
32038;SDS011;18549;42.286;22.688;2023-09-08T09:52:11;6.22;;;3.97;;
32038;SDS011;18549;42.286;22.688;2023-09-08T09:54:39;10.35;;;3.15;;
32038;SDS011;18549;42.286;22.688;2023-09-08T09:57:08;6.35;;;3.42;;
32038;SDS011;18549;42.286;22.688;2023-09-08T09:59:40;6.18;;;4.03;;
32038;SDS011;18549;42.286;22.688;2023-09-08T10:02:08;6.53;;;3.75;;
32038;SDS011;18549;42.286;22.688;2023-09-08T10:04:39;7.70;;;3.33;;
32038;SDS011;18549;42.286;22.688;2023-09-08T10:07:08;6.40;;;3.33;;
32038;SDS011;18549;42.286;22.688;2023-09-08T10:09:36;3.62;;;2.80;;
32038;SDS011;18549;42.286;22.688;2023-09-08T10:12:04;10.25;;;3.87;;
32038;SDS011;18549;42.286;22.688;2023-09-08T10:14:33;11.70;;;3.08;;
32038;SDS011;18549;42.286;22.688;2023-09-08T10:17:04;10.55;;;3.35;;
32038;SDS011;18549;42.286;22.688;2023-09-08T10:19:36;8.95;;;3.62;;
32038;SDS011;18549;42.286;22.688;2023-09-08T10:22:06;5.05;;;2.87;;
32038;SDS011;18549;42.286;22.688;2023-09-08T10:24:38;12.65;;;2.83;;
32038;SDS011;18549;42.286;22.688;2023-09-08T10:27:07;5.90;;;3.35;;
32038;SDS011;18549;42.286;22.688;2023-09-08T10:29:36;4.53;;;3.33;;
32038;SDS011;18549;42.286;22.688;2023-09-08T10:32:06;5.95;;;3.37;;
32038;SDS011;18549;42.286;22.688;2023-09-08T10:34:34;10.57;;;3.47;;
32038;SDS011;18549;42.286;22.688;2023-09-08T10:37:03;4.87;;;3.37;;
32038;SDS011;18549;42.286;22.688;2023-09-08T10:39:44;9.85;;;4.03;;
32038;SDS011;18549;42.286;22.688;2023-09-08T10:42:21;5.97;;;3.28;;
32038;SDS011;18549;42.286;22.688;2023-09-08T10:45:16;3.72;;;3.08;;
32038;SDS011;18549;42.286;22.688;2023-09-08T10:47:56;6.93;;;3.22;;
32038;SDS011;18549;42.286;22.688;2023-09-08T10:50:26;9.95;;;3.40;;
32038;SDS011;18549;42.286;22.688;2023-09-08T10:53:03;5.15;;;3.17;;
32038;SDS011;18549;42.286;22.688;2023-09-08T10:55:36;4.00;;;2.92;;
32038;SDS011;18549;42.286;22.688;2023-09-08T10:58:06;7.40;;;3.37;;
32038;SDS011;18549;42.286;22.688;2023-09-08T11:00:45;4.70;;;3.53;;
32038;SDS011;18549;42.286;22.688;2023-09-08T11:03:14;4.60;;;3.47;;
32038;SDS011;18549;42.286;22.688;2023-09-08T11:05:53;4.05;;;2.87;;
32038;SDS011;18549;42.286;22.688;2023-09-08T11:08:21;15.32;;;4.25;;
32038;SDS011;18549;42.286;22.688;2023-09-08T11:10:48;4.62;;;3.28;;
32038;SDS011;18549;42.286;22.688;2023-09-08T11:13:16;4.05;;;3.10;;
32038;SDS011;18549;42.286;22.688;2023-09-08T11:15:44;4.12;;;3.08;;
32038;SDS011;18549;42.286;22.688;2023-09-08T11:18:11;5.20;;;3.25;;
32038;SDS011;18549;42.286;22.688;2023-09-08T11:20:40;6.07;;;3.47;;
32038;SDS011;18549;42.286;22.688;2023-09-08T11:23:09;7.07;;;3.62;;
32038;SDS011;18549;42.286;22.688;2023-09-08T11:25:37;8.18;;;3.62;;
32038;SDS011;18549;42.286;22.688;2023-09-08T11:28:04;10.20;;;3.55;;
32038;SDS011;18549;42.286;22.688;2023-09-08T11:30:32;8.30;;;4.00;;
32038;SDS011;18549;42.286;22.688;2023-09-08T11:33:01;16.80;;;3.87;;
32038;SDS011;18549;42.286;22.688;2023-09-08T11:35:28;10.63;;;3.80;;
32038;SDS011;18549;42.286;22.688;2023-09-08T11:38:00;5.87;;;3.62;;
32038;SDS011;18549;42.286;22.688;2023-09-08T11:40:30;11.65;;;3.53;;
32038;SDS011;18549;42.286;22.688;2023-09-08T11:42:59;5.40;;;3.17;;
32038;SDS011;18549;42.286;22.688;2023-09-08T11:45:27;5.25;;;3.30;;
32038;SDS011;18549;42.286;22.688;2023-09-08T11:47:53;3.33;;;3.00;;
32038;SDS011;18549;42.286;22.688;2023-09-08T11:50:21;9.45;;;2.95;;
32038;SDS011;18549;42.286;22.688;2023-09-08T11:52:50;4.90;;;3.30;;
32038;SDS011;18549;42.286;22.688;2023-09-08T11:55:20;3.83;;;2.70;;
32038;SDS011;18549;42.286;22.688;2023-09-08T11:57:49;5.12;;;3.30;;
32038;SDS011;18549;42.286;22.688;2023-09-08T12:00:20;4.53;;;3.22;;
32038;SDS011;18549;42.286;22.688;2023-09-08T12:02:48;4.50;;;2.67;;
32038;SDS011;18549;42.286;22.688;2023-09-08T12:05:20;3.03;;;2.53;;
32038;SDS011;18549;42.286;22.688;2023-09-08T12:07:49;3.83;;;2.92;;
32038;SDS011;18549;42.286;22.688;2023-09-08T12:10:17;4.78;;;3.47;;
32038;SDS011;18549;42.286;22.688;2023-09-08T12:12:47;6.25;;;3.00;;
32038;SDS011;18549;42.286;22.688;2023-09-08T12:15:30;4.25;;;3.10;;
32038;SDS011;18549;42.286;22.688;2023-09-08T12:17:58;5.60;;;3.05;;
32038;SDS011;18549;42.286;22.688;2023-09-08T12:20:27;5.30;;;3.15;;
32038;SDS011;18549;42.286;22.688;2023-09-08T12:22:56;6.65;;;3.00;;
32038;SDS011;18549;42.286;22.688;2023-09-08T12:25:25;3.87;;;2.62;;
32038;SDS011;18549;42.286;22.688;2023-09-08T12:27:55;6.82;;;2.62;;
32038;SDS011;18549;42.286;22.688;2023-09-08T12:30:22;5.57;;;2.80;;
32038;SDS011;18549;42.286;22.688;2023-09-08T12:32:55;3.50;;;2.50;;
32038;SDS011;18549;42.286;22.688;2023-09-08T12:35:24;3.95;;;2.72;;
32038;SDS011;18549;42.286;22.688;2023-09-08T12:38:02;7.53;;;3.47;;
32038;SDS011;18549;42.286;22.688;2023-09-08T12:40:32;5.05;;;3.28;;
32038;SDS011;18549;42.286;22.688;2023-09-08T12:43:02;7.22;;;3.20;;
32038;SDS011;18549;42.286;22.688;2023-09-08T12:45:30;6.97;;;3.92;;
32038;SDS011;18549;42.286;22.688;2023-09-08T12:47:58;4.07;;;3.45;;
32038;SDS011;18549;42.286;22.688;2023-09-08T12:50:26;10.73;;;3.70;;
32038;SDS011;18549;42.286;22.688;2023-09-08T12:52:54;6.95;;;3.00;;
32038;SDS011;18549;42.286;22.688;2023-09-08T12:55:23;8.02;;;2.90;;
32038;SDS011;18549;42.286;22.688;2023-09-08T12:57:50;3.37;;;2.62;;
32038;SDS011;18549;42.286;22.688;2023-09-08T13:00:21;7.18;;;3.42;;
32038;SDS011;18549;42.286;22.688;2023-09-08T13:02:50;12.60;;;3.22;;
32038;SDS011;18549;42.286;22.688;2023-09-08T13:05:17;3.83;;;3.12;;
32038;SDS011;18549;42.286;22.688;2023-09-08T13:07:47;9.88;;;2.70;;
32038;SDS011;18549;42.286;22.688;2023-09-08T13:10:15;10.27;;;3.30;;
32038;SDS011;18549;42.286;22.688;2023-09-08T13:12:42;10.75;;;3.50;;
32038;SDS011;18549;42.286;22.688;2023-09-08T13:15:10;6.35;;;3.25;;
32038;SDS011;18549;42.286;22.688;2023-09-08T13:17:38;11.63;;;3.55;;
32038;SDS011;18549;42.286;22.688;2023-09-08T13:20:06;5.90;;;2.92;;
32038;SDS011;18549;42.286;22.688;2023-09-08T13:22:34;6.97;;;3.10;;
32038;SDS011;18549;42.286;22.688;2023-09-08T13:25:01;4.37;;;2.78;;
32038;SDS011;18549;42.286;22.688;2023-09-08T13:27:29;5.28;;;3.10;;
32038;SDS011;18549;42.286;22.688;2023-09-08T13:30:07;6.65;;;3.08;;
32038;SDS011;18549;42.286;22.688;2023-09-08T13:32:35;6.62;;;3.50;;
32038;SDS011;18549;42.286;22.688;2023-09-08T13:35:04;4.53;;;3.35;;
32038;SDS011;18549;42.286;22.688;2023-09-08T13:37:32;4.25;;;2.80;;
32038;SDS011;18549;42.286;22.688;2023-09-08T13:40:03;5.25;;;4.03;;
32038;SDS011;18549;42.286;22.688;2023-09-08T13:42:31;8.55;;;3.08;;
32038;SDS011;18549;42.286;22.688;2023-09-08T13:44:58;3.65;;;2.90;;
32038;SDS011;18549;42.286;22.688;2023-09-08T13:47:25;6.65;;;3.10;;
32038;SDS011;18549;42.286;22.688;2023-09-08T13:49:53;6.78;;;2.95;;
32038;SDS011;18549;42.286;22.688;2023-09-08T13:52:21;7.70;;;3.45;;
32038;SDS011;18549;42.286;22.688;2023-09-08T13:54:49;7.30;;;2.97;;
32038;SDS011;18549;42.286;22.688;2023-09-08T13:57:16;6.50;;;3.35;;
32038;SDS011;18549;42.286;22.688;2023-09-08T13:59:44;7.47;;;3.40;;
32038;SDS011;18549;42.286;22.688;2023-09-08T14:02:12;3.42;;;2.85;;
32038;SDS011;18549;42.286;22.688;2023-09-08T14:04:39;5.53;;;3.35;;
32038;SDS011;18549;42.286;22.688;2023-09-08T14:07:07;4.82;;;2.80;;
32038;SDS011;18549;42.286;22.688;2023-09-08T14:09:36;3.75;;;2.87;;
32038;SDS011;18549;42.286;22.688;2023-09-08T14:12:04;8.52;;;3.35;;
32038;SDS011;18549;42.286;22.688;2023-09-08T14:14:32;6.22;;;3.42;;
32038;SDS011;18549;42.286;22.688;2023-09-08T14:16:59;6.22;;;3.28;;
32038;SDS011;18549;42.286;22.688;2023-09-08T14:19:26;8.25;;;3.35;;
32038;SDS011;18549;42.286;22.688;2023-09-08T14:21:54;12.55;;;3.53;;
32038;SDS011;18549;42.286;22.688;2023-09-08T14:24:21;7.57;;;2.95;;
32038;SDS011;18549;42.286;22.688;2023-09-08T14:26:51;9.85;;;3.42;;
32038;SDS011;18549;42.286;22.688;2023-09-08T14:29:18;6.12;;;2.70;;
32038;SDS011;18549;42.286;22.688;2023-09-08T14:31:47;9.40;;;3.30;;
32038;SDS011;18549;42.286;22.688;2023-09-08T14:34:15;5.20;;;3.25;;
32038;SDS011;18549;42.286;22.688;2023-09-08T14:36:42;5.30;;;2.85;;
32038;SDS011;18549;42.286;22.688;2023-09-08T14:39:10;5.78;;;3.33;;
32038;SDS011;18549;42.286;22.688;2023-09-08T14:41:38;6.53;;;3.28;;